ADDS METAR Data INFO
IDs: Format: Raw Decoded Include TAF

Data at: 0636 UTC 15 Dec 2017

KGLW 150615Z AUTO 00000KT 10SM OVC037 00/M06 A3007 RMK AO2 T10051058
KGLW 150555Z AUTO 32003KT 10SM OVC037 00/M06 A3007 RMK AO2 T10051060 10011 21005
KGLW 150535Z AUTO 00000KT 10SM OVC037 00/M06 A3008 RMK AO2 T10051057
KGLW 150515Z AUTO 00000KT 10SM OVC037 00/M06 A3008 RMK AO2 T10051060
KGLW 150455Z AUTO 01003KT 10SM OVC037 00/M06 A3008 RMK AO2 T10021062
KGLW 150435Z AUTO 02004KT 10SM OVC037 00/M06 A3008 RMK AO2 T10021060
KGLW 150415Z AUTO 36004KT 10SM OVC037 00/M06 A3009 RMK AO2 T10011060
KGLW 150355Z AUTO 35005KT 10SM OVC037 00/M06 A3009 RMK AO2 T10011056 400751001
KGLW 150335Z AUTO 36005KT 10SM OVC037 00/M05 A3008 RMK AO2 T00001055
KGLW 150315Z AUTO 36004KT 10SM OVC037 00/M05 A3008 RMK AO2 T00001053
KGLW 150255Z AUTO 36003KT 10SM OVC039 00/M05 A3007 RMK AO2 T00001054
KGLW 150235Z AUTO 03003KT 10SM OVC039 00/M05 A3006 RMK AO2 T00011053
KGLW 150215Z AUTO 00000KT 10SM OVC039 00/M05 A3007 RMK AO2 T00021049
KGLW 150155Z AUTO 00000KT 10SM OVC039 01/M05 A3006 RMK AO2 T00051050
KGLW 150135Z AUTO 00000KT 10SM OVC039 00/M04 A3005 RMK AO2 T00011036
KGLW 150115Z AUTO 00000KT 10SM OVC041 00/M04 A3006 RMK AO2 T00011038
KGLW 150055Z AUTO 00000KT 10SM OVC041 01/M04 A3004 RMK AO2 T00051040
KGLW 150035Z AUTO 24004KT 10SM OVC041 01/M04 A3005 RMK AO2 T00071040
KGLW 150015Z AUTO 26003KT 10SM OVC041 01/M04 A3005 RMK AO2 T00101040
KGLW 142355Z AUTO 00000KT 10SM OVC041 01/M04 A3005 RMK AO2 T00111041 10036 20011
KGLW 142335Z AUTO 26005KT 10SM OVC041 01/M04 A3004 RMK AO2 T00111042
KGLW 142315Z AUTO 25004KT 10SM OVC039 02/M04 A3004 RMK AO2 T00151042
KGLW 142255Z AUTO 22003KT 10SM OVC039 02/M04 A3004 RMK AO2 T00151043
KGLW 142235Z AUTO 00000KT 10SM OVC039 02/M04 A3003 RMK AO2 T00171045
KGLW 142215Z AUTO 24005KT 10SM OVC039 02/M05 A3003 RMK AO2 T00201046
KGLW 142155Z AUTO 24004KT 10SM OVC039 03/M05 A3003 RMK AO2 T00251049
KGLW 142135Z AUTO 24003KT 10SM OVC037 03/M05 A3002 RMK AO2 T00251047
KGLW 142115Z AUTO 25005KT 10SM OVC037 03/M05 A3003 RMK AO2 T00251046
KGLW 142055Z AUTO 25006KT 10SM OVC037 03/M05 A3003 RMK AO2 T00261048
KGLW 142035Z AUTO 00000KT 10SM OVC037 03/M05 A3001 RMK AO2 T00271049
KGLW 142015Z AUTO 26005KT 10SM OVC035 03/M04 A3001 RMK AO2 T00301045
KGLW 141955Z AUTO 25004KT 10SM OVC035 03/M05 A3000 RMK AO2 T00291047
KGLW 141935Z AUTO 25005KT 10SM OVC035 03/M04 A2999 RMK AO2 T00311045
KGLW 141915Z AUTO 25003KT 10SM OVC035 04/M05 A2999 RMK AO2 T00361046
KGLW 141855Z AUTO 27003KT 10SM OVC033 03/M05 A3000 RMK AO2 T00321047
KGLW 141835Z AUTO 22003KT 10SM OVC033 03/M05 A3000 RMK AO2 T00321046
KGLW 141815Z AUTO 00000KT 10SM OVC031 03/M05 A3000 RMK AO2 T00271050
KGLW 141755Z AUTO 36003KT 10SM OVC031 02/M05 A3001 RMK AO2 T00241048 10025 20010
KGLW 141735Z AUTO 01004KT 10SM OVC031 02/M05 A3000 RMK AO2 T00211049
KGLW 141715Z AUTO 36006KT 10SM OVC031 02/M05 A3001 RMK AO2 T00181048
KGLW 141655Z AUTO 01006KT 10SM OVC029 02/M05 A3001 RMK AO2 T00181047
KGLW 141635Z AUTO 36007KT 10SM OVC029 02/M05 A3000 RMK AO2 T00151047
KGLW 141615Z AUTO 35006KT 10SM OVC029 01/M04 A3001 RMK AO2 T00131044
KGLW 141555Z AUTO 36007KT 10SM OVC029 01/M05 A3000 RMK AO2 T00121046
KGLW 141535Z AUTO 35008KT 10SM OVC029 01/M05 A3000 RMK AO2 T00121046
KGLW 141515Z AUTO 34007KT 10SM OVC029 01/M05 A2999 RMK AO2 T00111050
KGLW 141455Z AUTO 34008KT 10SM OVC029 01/M05 A2998 RMK AO2 T00111051
KGLW 141435Z AUTO 36006KT 10SM OVC027 01/M04 A2998 RMK AO2 T00121045
KGLW 141415Z AUTO 34008KT 10SM OVC025 02/M04 A2996 RMK AO2 T00151038
KGLW 141355Z AUTO 35006KT 10SM OVC025 02/M03 A2995 RMK AO2 T00161033
KGLW 141335Z AUTO 32003KT 10SM OVC025 02/M03 A2994 RMK AO2 T00161030
KGLW 141315Z AUTO 00000KT 10SM OVC025 02/M03 A2994 RMK AO2 T00151029
KGLW 141255Z AUTO 01003KT 10SM OVC025 02/M03 A2993 RMK AO2 T00161031
KGLW 141235Z AUTO 33005KT 10SM OVC027 02/M03 A2992 RMK AO2 T00151031
KGLW 141215Z AUTO 34006KT 10SM OVC027 02/M03 A2991 RMK AO2 T00161031
KGLW 141155Z AUTO 35008KT 10SM OVC027 02/M03 A2991 RMK AO2 T00171033 10045 20017
KGLW 141135Z AUTO 32004KT 10SM OVC029 02/M03 A2991 RMK AO2 T00181035
KGLW 141115Z AUTO 33009KT 10SM OVC029 02/M03 A2990 RMK AO2 T00191035
KGLW 141055Z AUTO 34007KT 10SM OVC029 02/M03 A2988 RMK AO2 T00201031
KGLW 141035Z AUTO 35009G15KT 310V010 10SM OVC029 02/M03 A2989 RMK AO2 T00221031
KGLW 141015Z AUTO 32007G14KT 10SM OVC029 02/M03 A2988 RMK AO2 T00241030
KGLW 140955Z AUTO 33008G15KT 10SM OVC031 03/M03 A2986 RMK AO2 T00261027
KGLW 140935Z AUTO 31007KT 10SM BKN031 03/M03 A2986 RMK AO2 T00251028
KGLW 140915Z AUTO 32006KT 10SM SCT031 02/M03 A2985 RMK AO2 T00241026
KGLW 140855Z AUTO 31007KT 10SM BKN031 03/M02 A2985 RMK AO2 T00271025
KGLW 140835Z AUTO 33008KT 10SM OVC029 04/M02 A2984 RMK AO2 T00351016
KGLW 140815Z AUTO 31005KT 10SM OVC029 04/M01 A2983 RMK AO2 T00361011
KGLW 140755Z AUTO 33005KT 10SM BKN029 04/M01 A2981 RMK AO2 T00361009
KGLW 140735Z AUTO 30005KT 10SM BKN029 04/M01 A2981 RMK AO2 T00401011
KGLW 140715Z AUTO 30003KT 10SM CLR 04/M02 A2978 RMK AO2 T00371018
KGLW 140655Z AUTO 29004KT 10SM CLR 04/M02 A2977 RMK AO2 T00401022
KGLW 140635Z AUTO 28004KT 10SM CLR 05/M03 A2976 RMK AO2 T00451026
KGLW 140615Z AUTO 27005KT 10SM CLR 04/M03 A2975 RMK AO2 T00421034
KGLW 140555Z AUTO 26004KT 10SM CLR 04/M04 A2975 RMK AO2 T00411037 10079 20040
KGLW 140535Z AUTO 25005KT 10SM CLR 04/M04 A2974 RMK AO2 T00401039
KGLW 140515Z AUTO 26005KT 10SM CLR 05/M04 A2973 RMK AO2 T00521040
KGLW 140455Z AUTO 26005KT 10SM CLR 06/M04 A2973 RMK AO2 T00621040
KGLW 140435Z AUTO 26009KT 10SM CLR 07/M04 A2973 RMK AO2 T00691042
KGLW 140415Z AUTO 25010G15KT 10SM SCT070 07/M04 A2972 RMK AO2 T00701044
KGLW 140355Z AUTO 25009KT 10SM OVC070 08/M05 A2972 RMK AO2 T00751046 400791085
KGLW 140335Z AUTO 25009KT 10SM OVC070 08/M05 A2971 RMK AO2 T00761049
KGLW 140315Z AUTO 24011G15KT 10SM BKN070 07/M05 A2970 RMK AO2 T00731053
KGLW 140255Z AUTO 23012G18KT 10SM OVC070 08/M06 A2970 RMK AO2 T00771058
KGLW 140235Z AUTO 23014KT 10SM OVC070 08/M06 A2969 RMK AO2 T00781060
KGLW 140215Z AUTO 23011G16KT 10SM OVC070 07/M06 A2969 RMK AO2 T00741061
KGLW 140155Z AUTO 23011KT 10SM SCT070 07/M07 A2969 RMK AO2 T00681066
KGLW 140135Z AUTO 22012G16KT 10SM CLR 07/M07 A2968 RMK AO2 T00651068
KGLW 140110Z AUTO 22011KT 10SM CLR 07/M07 A2968 RMK AO2 T00651071
KGLW 140055Z AUTO 22012KT 10SM SCT070 07/M07 A2968 RMK AO2 T00651071
KGLW 140035Z AUTO 22010KT 10SM BKN070 07/M07 A2968 RMK AO2 T00651073
KGLW 140015Z AUTO 22007KT 10SM SCT070 06/M07 A2968 RMK AO2 T00611072
KGLW 132355Z AUTO 23010KT 10SM CLR 06/M07 A2968 RMK AO2 T00621073 10078 20051
KGLW 132335Z AUTO 23009KT 10SM CLR 06/M07 A2967 RMK AO2 T00601074
KGLW 132315Z AUTO 22008KT 10SM SCT060 06/M07 A2966 RMK AO2 T00631075
KGLW 132255Z AUTO 22010KT 10SM BKN060 06/M07 A2966 RMK AO2 T00631075
KGLW 132235Z AUTO 22010KT 10SM CLR 07/M08 A2965 RMK AO2 T00651078
KGLW 132215Z AUTO 22010G15KT 10SM CLR 07/M08 A2965 RMK AO2 T00671080
KGLW 132155Z AUTO 21009G17KT 10SM CLR 07/M08 A2965 RMK AO2 T00681080
KGLW 132135Z AUTO 22014G18KT 10SM CLR 07/M08 A2964 RMK AO2 T00701082
KGLW 132115Z AUTO 21011G20KT 10SM CLR 07/M09 A2965 RMK AO2 T00701087
KGLW 132055Z AUTO 22012G16KT 10SM CLR 07/M09 A2966 RMK AO2 T00681091
KGLW 132035Z AUTO 20015G23KT 10SM CLR 07/M10 A2963 RMK AO2 T00701096
KGLW 132015Z AUTO 21010G17KT 10SM SCT110 08/M09 A2966 RMK AO2 T00751091
KGLW 131955Z AUTO 20013KT 10SM BKN110 06/M10 A2967 RMK AO2 T00621098
KGLW 131935Z AUTO 18013G18KT 10SM BKN110 06/M10 A2968 RMK AO2 T00601104
KGLW 131915Z AUTO 20011G20KT 10SM SCT110 06/M10 A2970 RMK AO2 T00611105
KGLW 131855Z AUTO 19012G24KT 10SM CLR 06/M11 A2971 RMK AO2 T00611106